createdAt,value
2018-12-03T00:01:45.100Z,14.60
2018-12-03T00:04:21.580Z,13.40
2018-12-03T00:06:51.076Z,14.80
2018-12-03T00:09:20.778Z,14.10
2018-12-03T00:11:50.128Z,14.50
2018-12-03T00:14:19.550Z,15.33
2018-12-03T00:16:48.875Z,13.80
2018-12-03T00:19:18.190Z,13.63
2018-12-03T00:21:47.443Z,13.70
2018-12-03T00:24:16.724Z,14.23
2018-12-03T00:26:46.181Z,14.13
2018-12-03T00:29:15.427Z,15.10
2018-12-03T00:31:44.707Z,14.90
2018-12-03T00:34:13.966Z,14.77
2018-12-03T00:36:43.333Z,16.07
2018-12-03T00:39:12.652Z,16.30
2018-12-03T00:41:41.914Z,16.73
2018-12-03T00:44:11.138Z,19.07
2018-12-03T00:46:40.431Z,18.43
2018-12-03T00:49:09.694Z,19.40
2018-12-03T00:51:39.043Z,19.63
2018-12-03T00:54:08.336Z,20.23
2018-12-03T00:56:37.571Z,20.00
2018-12-03T00:59:06.929Z,18.97
2018-12-03T01:01:36.818Z,19.60
2018-12-03T01:04:06.238Z,19.70
2018-12-03T01:06:35.669Z,18.87
2018-12-03T01:09:08.180Z,18.77
2018-12-03T01:11:38.114Z,18.63
2018-12-03T01:14:07.533Z,18.93
2018-12-03T01:16:37.429Z,18.77
2018-12-03T01:19:06.768Z,18.33
2018-12-03T01:21:35.993Z,18.83
2018-12-03T01:24:05.359Z,18.23
2018-12-03T01:26:34.606Z,18.43
2018-12-03T01:29:03.894Z,17.23
2018-12-03T01:31:33.201Z,17.93
2018-12-03T01:34:02.445Z,17.80
2018-12-03T01:36:31.698Z,18.90
2018-12-03T01:39:00.959Z,17.83
2018-12-03T01:41:30.535Z,19.23
2018-12-03T01:43:59.790Z,17.47
2018-12-03T01:46:32.002Z,17.87
2018-12-03T01:49:01.246Z,17.47
2018-12-03T01:51:30.540Z,18.40
2018-12-03T01:53:59.810Z,17.17
2018-12-03T01:56:29.067Z,16.07
2018-12-03T01:58:58.449Z,15.30
2018-12-03T02:01:27.698Z,15.53
2018-12-03T02:03:57.015Z,14.40
2018-12-03T02:06:26.256Z,14.40
2018-12-03T02:08:55.514Z,13.77
2018-12-03T02:11:24.878Z,13.50
2018-12-03T02:13:54.148Z,12.43
2018-12-03T02:16:23.501Z,13.53
2018-12-03T02:18:53.679Z,12.90
2018-12-03T02:21:23.070Z,12.87
2018-12-03T02:23:52.314Z,12.80
2018-12-03T02:26:21.576Z,12.50
2018-12-03T02:28:50.920Z,13.47
2018-12-03T02:31:20.210Z,12.33
2018-12-03T02:33:49.552Z,12.17
2018-12-03T02:36:18.829Z,11.97
2018-12-03T02:38:48.069Z,11.30
2018-12-03T02:41:17.376Z,9.97
2018-12-03T02:43:46.634Z,9.77
2018-12-03T02:46:15.954Z,10.27
2018-12-03T02:48:45.982Z,9.67
2018-12-03T02:51:15.253Z,9.10
2018-12-03T02:53:44.491Z,9.03
2018-12-03T02:56:13.720Z,8.93
2018-12-03T02:58:42.960Z,8.43
2018-12-03T03:01:12.245Z,8.40
2018-12-03T03:03:41.581Z,7.63
2018-12-03T03:06:11.011Z,7.97
2018-12-03T03:08:40.291Z,8.10
2018-12-03T03:11:09.532Z,7.23
2018-12-03T03:13:38.953Z,7.70
2018-12-03T03:16:08.241Z,7.50
2018-12-03T03:18:37.607Z,7.07
2018-12-03T03:21:06.935Z,6.90
2018-12-03T03:23:36.167Z,6.63
2018-12-03T03:26:05.565Z,6.60
2018-12-03T03:28:34.864Z,6.77
2018-12-03T03:31:04.183Z,6.83
2018-12-03T03:33:33.551Z,6.67
2018-12-03T03:36:02.811Z,6.93
2018-12-03T03:38:32.062Z,6.70
2018-12-03T03:41:01.515Z,7.00
2018-12-03T03:43:30.762Z,6.87
2018-12-03T03:46:00.066Z,7.60
2018-12-03T03:48:29.306Z,7.20
2018-12-03T03:50:58.541Z,6.83
2018-12-03T03:53:27.829Z,6.77
2018-12-03T03:55:57.049Z,6.33
2018-12-03T03:58:26.326Z,6.50
2018-12-03T04:00:55.653Z,6.37
2018-12-03T04:03:24.915Z,6.07
2018-12-03T04:05:54.842Z,6.00
2018-12-03T04:08:24.097Z,5.57
2018-12-03T04:10:53.511Z,6.13
2018-12-03T04:13:22.774Z,5.27
2018-12-03T04:15:52.090Z,5.43
2018-12-03T04:18:21.447Z,5.37
2018-12-03T04:20:50.714Z,5.30
2018-12-03T04:23:19.989Z,4.47
2018-12-03T04:25:49.292Z,4.87
2018-12-03T04:28:18.598Z,4.60
2018-12-03T04:30:47.919Z,5.10
2018-12-03T04:33:17.180Z,5.10
2018-12-03T04:35:46.412Z,5.57
2018-12-03T04:38:15.675Z,5.23
2018-12-03T04:40:45.771Z,5.33
2018-12-03T04:43:15.037Z,5.00
2018-12-03T04:45:44.331Z,4.77
2018-12-03T04:48:13.615Z,5.00
2018-12-03T04:50:42.886Z,4.50
2018-12-03T04:53:12.233Z,4.73
2018-12-03T04:55:42.382Z,4.97
2018-12-03T04:58:11.603Z,5.00
2018-12-03T05:00:40.911Z,4.73
2018-12-03T05:03:10.666Z,4.97
2018-12-03T05:05:39.914Z,4.70
2018-12-03T05:08:09.155Z,4.80
2018-12-03T05:10:38.579Z,4.57
2018-12-03T05:13:07.844Z,4.80
2018-12-03T05:15:37.783Z,5.50
2018-12-03T05:18:07.160Z,5.10
2018-12-03T05:20:36.502Z,4.80
2018-12-03T05:23:05.822Z,4.73
2018-12-03T05:25:35.035Z,5.53
2018-12-03T05:28:04.313Z,4.63
2018-12-03T05:30:33.694Z,4.90
2018-12-03T05:33:02.925Z,4.90
2018-12-03T05:35:32.181Z,5.23
2018-12-03T05:38:01.487Z,4.77
2018-12-03T05:40:31.412Z,4.87
2018-12-03T05:43:01.241Z,4.80
2018-12-03T05:45:30.463Z,5.20
2018-12-03T05:47:59.740Z,5.07
2018-12-03T05:50:29.000Z,4.50
2018-12-03T05:52:58.213Z,4.70
2018-12-03T05:55:27.481Z,5.13
2018-12-03T05:57:56.771Z,4.70
2018-12-03T06:00:26.065Z,5.20
2018-12-03T06:02:55.335Z,5.30
2018-12-03T06:05:24.609Z,4.80
2018-12-03T06:07:53.966Z,5.20
2018-12-03T06:10:23.639Z,4.77
2018-12-03T06:12:52.898Z,5.50
2018-12-03T06:15:22.580Z,5.20
2018-12-03T06:17:53.214Z,4.47
2018-12-03T06:20:23.380Z,5.20
2018-12-03T06:22:53.961Z,5.30
2018-12-03T06:25:28.459Z,4.60
2018-12-03T06:27:57.779Z,5.23
2018-12-03T06:30:27.890Z,5.57
2018-12-03T06:32:57.159Z,4.90
2018-12-03T06:35:26.754Z,5.13
2018-12-03T06:37:56.802Z,4.63
2018-12-03T06:40:28.529Z,5.40
2018-12-03T06:42:58.638Z,4.70
2018-12-03T06:45:28.333Z,4.93
2018-12-03T06:48:01.102Z,4.97
2018-12-03T06:50:30.374Z,4.77
2018-12-03T06:52:59.623Z,5.30
2018-12-03T06:55:28.991Z,5.03
2018-12-03T06:57:58.326Z,5.07
2018-12-03T07:00:27.577Z,4.77
2018-12-03T07:02:56.826Z,4.63
2018-12-03T07:05:26.120Z,5.30
2018-12-03T07:07:57.132Z,4.80
2018-12-03T07:10:26.663Z,5.00
2018-12-03T07:12:57.647Z,4.67
2018-12-03T07:15:26.946Z,4.60
2018-12-03T07:17:57.495Z,5.30
2018-12-03T07:20:26.851Z,4.57
2018-12-03T07:22:56.182Z,5.00
2018-12-03T07:25:25.514Z,4.83
2018-12-03T07:27:55.617Z,4.57
2018-12-03T07:30:25.886Z,4.47
2018-12-03T07:32:55.197Z,4.93
2018-12-03T07:35:24.672Z,4.20
2018-12-03T07:37:55.060Z,4.17
2018-12-03T07:40:24.854Z,3.97
2018-12-03T07:42:54.113Z,4.13
2018-12-03T07:45:24.511Z,4.33
2018-12-03T07:47:53.817Z,4.77
2018-12-03T07:50:24.452Z,4.73
2018-12-03T07:52:53.947Z,4.93
2018-12-03T07:55:24.297Z,4.00
2018-12-03T07:58:00.096Z,4.70
2018-12-03T08:00:32.201Z,4.20
2018-12-03T08:03:01.531Z,4.50
2018-12-03T08:05:30.786Z,4.03
2018-12-03T08:08:00.075Z,4.90
2018-12-03T08:10:29.361Z,4.80
2018-12-03T08:12:58.671Z,5.00
2018-12-03T08:15:28.009Z,5.27
2018-12-03T08:18:01.093Z,4.87
2018-12-03T08:20:33.843Z,4.83
2018-12-03T08:23:08.706Z,5.13
2018-12-03T08:25:39.329Z,5.60
2018-12-03T08:28:09.217Z,5.60
2018-12-03T08:30:38.570Z,5.33
2018-12-03T08:33:07.879Z,4.93
2018-12-03T08:35:37.109Z,4.93
2018-12-03T08:38:06.521Z,5.17
2018-12-03T08:40:36.103Z,5.10
2018-12-03T08:43:05.666Z,5.73
2018-12-03T08:45:34.897Z,5.13
2018-12-03T08:48:04.131Z,4.87
2018-12-03T08:50:33.437Z,5.50
2018-12-03T08:53:02.689Z,5.43
2018-12-03T08:55:31.971Z,5.33
2018-12-03T08:58:01.254Z,4.70
2018-12-03T09:00:30.910Z,5.47
2018-12-03T09:03:06.234Z,5.97
2018-12-03T09:05:37.792Z,4.90
2018-12-03T09:08:08.495Z,4.83
2018-12-03T09:10:37.994Z,5.53
2018-12-03T09:13:19.908Z,4.87
2018-12-03T09:15:56.526Z,5.30
2018-12-03T09:18:31.079Z,5.07
2018-12-03T09:21:01.517Z,5.17
2018-12-03T09:23:30.826Z,5.40
2018-12-03T09:26:00.130Z,6.03
2018-12-03T09:28:29.643Z,5.90
2018-12-03T09:30:58.927Z,5.23
2018-12-03T09:33:28.254Z,5.77
2018-12-03T09:35:57.522Z,5.40
2018-12-03T09:38:26.855Z,5.87
2018-12-03T09:40:59.323Z,5.77
2018-12-03T09:43:29.867Z,5.20
2018-12-03T09:45:59.123Z,5.53
2018-12-03T09:48:28.391Z,5.30
2018-12-03T09:50:57.723Z,5.17
2018-12-03T09:53:27.078Z,5.73
2018-12-03T09:55:56.481Z,5.80
2018-12-03T09:58:25.740Z,5.80
2018-12-03T10:00:55.133Z,6.37
2018-12-03T10:03:27.438Z,5.80
2018-12-03T10:05:58.766Z,5.43
2018-12-03T10:08:29.598Z,5.67
2018-12-03T10:11:00.272Z,5.23
2018-12-03T10:13:30.581Z,5.43
2018-12-03T10:16:00.045Z,5.47
2018-12-03T10:18:29.316Z,6.13
2018-12-03T10:20:59.950Z,6.30
2018-12-03T10:23:29.295Z,6.17
2018-12-03T10:25:59.962Z,6.33
2018-12-03T10:28:29.628Z,5.87
2018-12-03T10:30:59.344Z,6.77
2018-12-03T10:33:30.527Z,5.33
2018-12-03T10:36:03.718Z,6.03
2018-12-03T10:38:35.658Z,5.70
2018-12-03T10:41:14.161Z,6.23
2018-12-03T10:43:43.432Z,5.57
2018-12-03T10:46:12.689Z,5.70
2018-12-03T10:48:41.948Z,5.30
2018-12-03T10:51:17.058Z,5.67
2018-12-03T10:53:46.442Z,5.63
2018-12-03T10:56:15.751Z,6.10
2018-12-03T10:58:46.447Z,6.00
2018-12-03T11:01:21.065Z,5.83
2018-12-03T11:03:55.760Z,6.33
2018-12-03T11:06:26.155Z,6.33
2018-12-03T11:08:55.500Z,5.77
2018-12-03T11:11:24.854Z,5.37
2018-12-03T11:13:54.271Z,6.13
2018-12-03T11:16:29.964Z,6.17
2018-12-03T11:18:59.367Z,5.73
2018-12-03T11:21:29.050Z,6.50
2018-12-03T11:23:58.533Z,5.70
2018-12-03T11:26:39.214Z,5.97
2018-12-03T11:29:09.393Z,5.40
2018-12-03T11:31:38.821Z,6.30
2018-12-03T11:34:08.120Z,6.10
2018-12-03T11:37:15.322Z,6.17
2018-12-03T11:39:56.485Z,5.93
2018-12-03T11:42:28.341Z,6.00
2018-12-03T11:44:58.432Z,5.50
2018-12-03T11:47:27.682Z,5.97
2018-12-03T11:49:56.966Z,5.53
2018-12-03T11:52:26.226Z,6.23
2018-12-03T11:54:55.521Z,5.90
2018-12-03T11:57:24.920Z,6.30
2018-12-03T11:59:54.166Z,5.87
2018-12-03T12:02:24.100Z,5.97
2018-12-03T12:04:53.354Z,5.90
2018-12-03T12:07:22.604Z,5.90
2018-12-03T12:09:52.650Z,6.23
2018-12-03T12:12:21.900Z,6.60
2018-12-03T12:14:51.140Z,5.70
2018-12-03T12:17:20.386Z,5.87
2018-12-03T12:19:49.670Z,4.87
2018-12-03T12:22:19.008Z,6.37
2018-12-03T12:24:48.349Z,5.70
2018-12-03T12:27:18.300Z,6.13
2018-12-03T12:29:47.559Z,6.40
2018-12-03T12:32:16.783Z,6.37
2018-12-03T12:34:46.015Z,5.70
2018-12-03T12:37:15.297Z,5.60
2018-12-03T12:39:44.571Z,5.50
2018-12-03T12:42:13.813Z,6.33
2018-12-03T12:44:43.067Z,5.67
2018-12-03T12:47:12.315Z,5.93
2018-12-03T12:49:41.562Z,5.90
2018-12-03T12:52:10.812Z,6.47
2018-12-03T12:54:40.067Z,5.53
2018-12-03T12:57:09.411Z,6.07
2018-12-03T12:59:38.661Z,5.97
2018-12-03T13:02:09.594Z,5.53
2018-12-03T13:04:38.864Z,6.17
2018-12-03T13:07:08.152Z,6.30
2018-12-03T13:09:37.447Z,6.07
2018-12-03T13:12:07.699Z,6.07
2018-12-03T13:14:36.995Z,5.83
2018-12-03T13:17:07.128Z,5.93
2018-12-03T13:19:36.378Z,5.70
2018-12-03T13:22:06.551Z,6.23
2018-12-03T13:24:35.822Z,5.77
2018-12-03T13:27:05.308Z,6.43
2018-12-03T13:29:34.662Z,6.17
2018-12-03T13:32:03.846Z,6.30
2018-12-03T13:34:34.513Z,5.83
2018-12-03T13:37:02.415Z,6.23
2018-12-03T13:39:31.686Z,6.10
2018-12-03T13:42:00.935Z,6.10
2018-12-03T13:44:30.306Z,5.93
2018-12-03T13:46:59.680Z,6.43
2018-12-03T13:49:28.951Z,5.37
2018-12-03T13:51:58.229Z,6.67
2018-12-03T13:54:27.486Z,5.50
2018-12-03T13:56:56.892Z,5.80
2018-12-03T13:59:27.126Z,5.80
2018-12-03T14:01:56.432Z,5.87
2018-12-03T14:04:25.682Z,6.07
2018-12-03T14:07:09.422Z,6.37
2018-12-03T14:09:51.500Z,6.37
2018-12-03T14:12:32.070Z,6.40
2018-12-03T14:17:15.105Z,5.83
2018-12-03T14:19:52.115Z,6.20
2018-12-03T14:22:26.294Z,6.50
2018-12-03T14:24:55.562Z,6.97
2018-12-03T14:27:24.894Z,6.33
2018-12-03T14:29:55.238Z,7.10
2018-12-03T14:32:24.514Z,6.77
2018-12-03T14:34:53.769Z,6.20
2018-12-03T14:37:23.038Z,6.50
2018-12-03T14:39:52.311Z,6.77
2018-12-03T14:42:22.582Z,6.57
2018-12-03T14:44:52.239Z,7.23
2018-12-03T14:47:21.522Z,6.57
2018-12-03T14:49:50.784Z,6.67
2018-12-03T14:52:20.038Z,6.07
2018-12-03T14:54:49.319Z,6.33
2018-12-03T14:57:18.708Z,6.77
2018-12-03T14:59:47.978Z,6.60
2018-12-03T15:02:17.238Z,6.63
2018-12-03T15:04:46.499Z,6.67
2018-12-03T15:07:15.911Z,7.37
2018-12-03T15:09:45.232Z,6.53
2018-12-03T15:12:14.522Z,6.53
2018-12-03T15:14:43.805Z,7.00
2018-12-03T15:17:13.042Z,6.40
2018-12-03T15:19:42.311Z,7.50
2018-12-03T15:22:11.578Z,6.23
2018-12-03T15:24:40.818Z,6.33
2018-12-03T15:27:10.067Z,6.50
2018-12-03T15:29:39.361Z,6.27
2018-12-03T15:32:08.700Z,6.60
2018-12-03T15:34:37.939Z,7.03
2018-12-03T15:37:07.270Z,6.67
2018-12-03T15:39:36.590Z,6.63
2018-12-03T15:42:05.889Z,6.93
2018-12-03T15:44:35.128Z,7.13
2018-12-03T15:47:04.428Z,6.73
2018-12-03T15:49:33.698Z,7.43
2018-12-03T15:52:02.952Z,7.03
2018-12-03T15:54:32.245Z,7.20
2018-12-03T15:57:01.596Z,6.77
2018-12-03T15:59:30.890Z,7.00
2018-12-03T16:02:00.209Z,7.10
2018-12-03T16:04:29.573Z,7.43
2018-12-03T16:06:58.838Z,7.37
2018-12-03T16:09:28.094Z,7.83
2018-12-03T16:11:58.090Z,7.80
2018-12-03T16:14:27.439Z,8.07
2018-12-03T16:16:56.724Z,8.07
2018-12-03T16:19:25.987Z,8.97
2018-12-03T16:21:55.341Z,10.83
2018-12-03T16:24:24.594Z,8.30
2018-12-03T16:26:53.866Z,9.67
2018-12-03T16:29:23.135Z,9.47
2018-12-03T16:31:52.480Z,11.50
2018-12-03T16:34:21.901Z,10.20
2018-12-03T16:36:51.199Z,9.10
2018-12-03T16:39:20.458Z,9.57
2018-12-03T16:41:49.718Z,9.67
2018-12-03T16:44:18.984Z,10.20
2018-12-03T16:46:49.438Z,13.07
2018-12-03T16:49:19.999Z,12.73
2018-12-03T16:51:52.046Z,11.27
2018-12-03T16:54:21.356Z,11.97
2018-12-03T16:56:51.748Z,9.87
2018-12-03T16:59:19.994Z,10.27
2018-12-03T17:01:49.293Z,11.63
2018-12-03T17:04:18.566Z,11.40
2018-12-03T17:06:47.815Z,9.93
2018-12-03T17:09:17.127Z,10.83
2018-12-03T17:11:47.339Z,10.73
2018-12-03T17:14:16.577Z,9.83
2018-12-03T17:16:45.944Z,10.27
2018-12-03T17:19:15.185Z,9.93
2018-12-03T17:22:11.134Z,9.90
2018-12-03T17:24:41.518Z,9.80
2018-12-03T17:27:10.852Z,6.27
2018-12-03T17:29:40.201Z,6.57
2018-12-03T17:32:09.657Z,5.40
2018-12-03T17:34:39.022Z,5.70
2018-12-03T17:37:08.479Z,5.90
2018-12-03T17:39:37.776Z,5.17
2018-12-03T17:42:07.030Z,5.40
2018-12-03T17:44:36.276Z,6.13
2018-12-03T17:47:05.531Z,5.00
2018-12-03T17:49:35.978Z,4.60
2018-12-03T17:52:05.287Z,4.87
2018-12-03T17:54:34.550Z,4.80
2018-12-03T17:57:04.240Z,4.87
2018-12-03T17:59:33.552Z,6.60
2018-12-03T18:02:10.059Z,6.27
2018-12-03T18:04:39.437Z,7.90
2018-12-03T18:07:08.679Z,9.13
2018-12-03T18:09:37.966Z,8.43
2018-12-03T18:12:07.332Z,7.87
2018-12-03T18:14:36.664Z,6.70
2018-12-03T18:17:05.909Z,6.73
2018-12-03T18:19:35.155Z,8.20
2018-12-03T18:22:04.494Z,6.13
2018-12-03T18:24:33.757Z,5.80
2018-12-03T18:27:03.010Z,6.43
2018-12-03T18:29:32.266Z,5.60
2018-12-03T18:32:02.136Z,5.63
2018-12-03T18:34:31.457Z,6.00
2018-12-03T18:37:01.317Z,5.13
2018-12-03T18:39:30.598Z,4.60
2018-12-03T18:42:00.002Z,4.47
2018-12-03T18:44:29.225Z,4.93
2018-12-03T18:46:58.545Z,4.00
2018-12-03T18:49:32.610Z,4.20
2018-12-03T18:52:01.892Z,4.80
2018-12-03T18:54:32.335Z,3.57
2018-12-03T18:57:01.624Z,3.53
2018-12-03T18:59:30.859Z,3.90
2018-12-03T19:02:00.238Z,4.27
2018-12-03T19:04:29.634Z,4.10
2018-12-03T19:06:58.911Z,3.63
2018-12-03T19:09:28.190Z,3.63
2018-12-03T19:11:57.569Z,4.03
2018-12-03T19:14:26.842Z,3.77
2018-12-03T19:16:56.116Z,3.73
2018-12-03T19:19:25.402Z,4.00
2018-12-03T19:21:54.672Z,3.20
2018-12-03T19:24:23.926Z,3.10
2018-12-03T19:26:53.210Z,3.40
2018-12-03T19:29:22.512Z,3.63
2018-12-03T19:31:51.771Z,3.00
2018-12-03T19:34:21.066Z,3.20
2018-12-03T19:36:50.376Z,4.07
2018-12-03T19:39:19.665Z,4.53
2018-12-03T19:41:49.380Z,5.40
2018-12-03T19:44:18.627Z,3.70
2018-12-03T19:46:48.647Z,4.60
2018-12-03T19:49:18.562Z,3.67
2018-12-03T19:51:47.860Z,3.60
2018-12-03T19:54:18.514Z,2.60
2018-12-03T19:56:47.795Z,2.73
2018-12-03T19:59:17.146Z,3.33
2018-12-03T20:01:46.437Z,3.10
2018-12-03T20:04:21.532Z,3.23
2018-12-03T20:06:50.926Z,3.07
2018-12-03T20:09:21.466Z,2.77
2018-12-03T20:11:50.734Z,4.00
2018-12-03T20:14:20.755Z,2.60
2018-12-03T20:16:50.020Z,2.63
2018-12-03T20:19:19.310Z,3.20
2018-12-03T20:21:50.036Z,2.57
2018-12-03T20:24:21.699Z,2.50
2018-12-03T20:27:00.926Z,2.00
2018-12-03T20:29:41.199Z,2.00
2018-12-03T20:32:36.718Z,2.50
2018-12-03T20:35:06.931Z,1.93
2018-12-03T20:37:36.282Z,2.47
2018-12-03T20:40:11.355Z,2.80
2018-12-03T20:42:39.643Z,2.57
2018-12-03T20:45:11.991Z,2.30
2018-12-03T20:47:40.273Z,2.30
2018-12-03T20:50:11.804Z,2.83
2018-12-03T20:52:40.682Z,2.27
2018-12-03T20:55:10.606Z,2.50
2018-12-03T20:57:38.821Z,2.93
2018-12-03T21:00:10.087Z,2.67
2018-12-03T21:02:38.211Z,2.90
2018-12-03T21:05:06.450Z,3.50
2018-12-03T21:07:34.586Z,3.13
2018-12-03T21:10:02.746Z,3.33
2018-12-03T21:12:30.880Z,3.30
2018-12-03T21:14:59.054Z,4.00
2018-12-03T21:17:27.211Z,3.20
2018-12-03T21:19:55.355Z,3.30
2018-12-03T21:22:23.573Z,2.87
2018-12-03T21:24:51.729Z,2.60
2018-12-03T21:27:20.036Z,3.30
2018-12-03T21:29:48.239Z,3.10
2018-12-03T21:32:17.370Z,3.00
2018-12-03T21:34:45.660Z,2.77
2018-12-03T21:37:13.859Z,2.83
2018-12-03T21:39:47.827Z,5.10
2018-12-03T21:42:12.190Z,2.73
2018-12-03T21:44:40.352Z,2.80
2018-12-03T21:47:08.534Z,2.80
2018-12-03T21:49:36.664Z,3.17
2018-12-03T21:52:04.883Z,3.00
2018-12-03T21:54:33.023Z,2.90
2018-12-03T21:57:01.160Z,3.67
2018-12-03T21:59:29.310Z,3.67
2018-12-03T22:01:57.466Z,3.83
2018-12-03T22:04:25.655Z,2.67
2018-12-03T22:06:53.962Z,3.20
2018-12-03T22:09:22.706Z,2.90
2018-12-03T22:11:52.391Z,3.03
2018-12-03T22:14:20.592Z,2.77
2018-12-03T22:16:48.807Z,3.73
2018-12-03T22:19:16.969Z,3.23
2018-12-03T22:21:45.303Z,3.07
2018-12-03T22:24:13.515Z,3.20
2018-12-03T22:26:41.726Z,2.90
2018-12-03T22:29:09.951Z,2.50
2018-12-03T22:31:38.264Z,2.70
2018-12-03T22:34:06.406Z,2.10
2018-12-03T22:36:34.555Z,2.43
2018-12-03T22:39:02.696Z,1.83
2018-12-03T22:41:31.082Z,1.97
2018-12-03T22:43:59.247Z,1.93
2018-12-03T22:46:27.447Z,1.80
2018-12-03T22:48:56.078Z,1.90
2018-12-03T22:51:24.289Z,1.90
2018-12-03T22:53:52.435Z,2.47
2018-12-03T22:56:20.571Z,2.10
2018-12-03T22:58:48.739Z,3.07
2018-12-03T23:01:19.030Z,2.67
2018-12-03T23:03:47.242Z,2.57
2018-12-03T23:06:15.383Z,2.40
2018-12-03T23:08:43.563Z,2.47
2018-12-03T23:11:11.706Z,2.70
2018-12-03T23:13:41.801Z,2.63
2018-12-03T23:16:09.950Z,2.33
2018-12-03T23:18:38.476Z,2.93
2018-12-03T23:21:06.656Z,2.47
2018-12-03T23:23:34.831Z,2.53
2018-12-03T23:26:03.063Z,3.17
2018-12-03T23:28:31.197Z,2.93
2018-12-03T23:30:59.345Z,1.90
2018-12-03T23:33:27.485Z,2.23
2018-12-03T23:35:55.652Z,1.80
2018-12-03T23:38:23.795Z,1.93
2018-12-03T23:40:52.029Z,2.00
2018-12-03T23:43:20.310Z,1.97
2018-12-03T23:45:48.471Z,1.97
2018-12-03T23:48:16.609Z,2.30
2018-12-03T23:50:44.779Z,2.63
2018-12-03T23:53:12.938Z,2.23
2018-12-03T23:55:41.082Z,2.70
2018-12-03T23:58:09.228Z,2.80
